Time;durP1;ratioP1;P1;durP2;ratioP2;P2;SDS_P1;SDS_P2;PMS_P1;PMS_P2;Temp;Humidity;BMP_temperature;BMP_pressure;BME280_temperature;BME280_humidity;BME280_pressure;Samples;Min_cycle;Max_cycle;Signal;HPM_P1;HPM_P2
2022/06/22 00:00:23;;;;;;;1.40;1.30;;;;;;;17.26;78.02;100493.66;5069171;28;20051;-82
2022/06/22 00:02:53;;;;;;;2.25;1.30;;;;;;;17.25;77.96;100492.00;5039561;28;20031;-82
2022/06/22 00:05:54;;;;;;;3.67;1.33;;;;;;;17.23;77.90;100494.84;5090164;28;20050;-83
2022/06/22 00:08:27;;;;;;;1.27;1.10;;;;;;;17.24;78.02;100501.03;4988251;28;20093;-83
2022/06/22 00:10:58;;;;;;;3.08;0.93;;;;;;;17.23;78.10;100499.38;5056005;28;20124;-84
2022/06/22 00:13:28;;;;;;;4.30;1.38;;;;;;;17.16;78.11;100501.97;5089564;28;20059;-84
2022/06/22 00:16:12;;;;;;;3.65;1.25;;;;;;;17.09;78.20;100503.72;5090410;28;20032;-84
2022/06/22 00:18:42;;;;;;;1.58;1.20;;;;;;;17.05;78.73;100505.91;5039964;28;20391;-83
2022/06/22 00:21:25;;;;;;;2.05;1.30;;;;;;;16.99;78.97;100507.47;5048302;28;20103;-84
2022/06/22 00:23:55;;;;;;;1.95;1.42;;;;;;;16.97;79.11;100500.66;5072194;28;20496;-84
2022/06/22 00:26:24;;;;;;;3.30;1.30;;;;;;;16.96;79.25;100499.03;5056463;28;20032;-83
2022/06/22 00:28:56;;;;;;;1.88;1.30;;;;;;;16.95;79.12;100502.69;5052025;28;20040;-84
2022/06/22 00:31:56;;;;;;;2.65;1.55;;;;;;;16.89;79.22;100498.94;5073680;28;20040;-83
2022/06/22 00:34:26;;;;;;;1.77;1.67;;;;;;;16.92;79.31;100500.38;5087517;28;20133;-84
2022/06/22 00:37:15;;;;;;;3.25;1.77;;;;;;;16.92;79.16;100498.56;5038120;28;20114;-83
2022/06/22 00:39:47;;;;;;;3.20;1.33;;;;;;;16.91;79.59;100499.59;5052245;28;20049;-84
2022/06/22 00:42:30;;;;;;;3.58;1.38;;;;;;;16.89;79.29;100498.94;5072139;28;20031;-82
2022/06/22 00:45:06;;;;;;;4.68;1.25;;;;;;;16.89;79.37;100506.09;5074027;28;20094;-83
2022/06/22 00:47:31;;;;;;;1.90;1.20;;;;;;;16.87;79.50;100500.94;5049972;28;20480;-83
2022/06/22 00:50:09;;;;;;;1.75;1.30;;;;;;;16.92;79.48;100503.91;4995025;28;20039;-83
2022/06/22 00:52:38;;;;;;;2.05;1.17;;;;;;;16.92;79.56;100493.22;5072991;28;20079;-83
2022/06/22 00:55:17;;;;;;;4.45;1.05;;;;;;;16.95;79.31;100498.19;5064946;28;20495;-83
2022/06/22 00:57:49;;;;;;;4.10;1.25;;;;;;;16.95;79.38;100497.34;5079482;28;20040;-83
2022/06/22 01:00:20;;;;;;;1.63;1.17;;;;;;;16.95;79.15;100487.50;5057701;28;20032;-83
2022/06/22 01:02:58;;;;;;;1.42;1.00;;;;;;;16.94;79.11;100488.53;5074194;28;20149;-83
2022/06/22 01:05:42;;;;;;;5.57;1.27;;;;;;;16.93;79.10;100488.72;5054865;28;20107;-83
2022/06/22 01:08:24;;;;;;;2.50;1.42;;;;;;;16.93;79.29;100486.84;5085482;28;20043;-83
2022/06/22 01:10:58;;;;;;;3.90;1.17;;;;;;;16.92;79.21;100487.88;5071146;28;20032;-82
2022/06/22 01:13:34;;;;;;;1.27;1.08;;;;;;;16.89;79.28;100487.41;5054472;28;20123;-82
2022/06/22 01:16:02;;;;;;;;;;;;;;;16.71;79.75;100477.94;5066078;28;20483;-83
2022/06/22 01:18:37;;;;;;;1.42;1.33;;;;;;;16.74;79.83;100480.22;5089859;28;19912;-83
2022/06/22 01:21:13;;;;;;;2.72;1.10;;;;;;;16.76;79.64;100486.22;5034482;28;20725;-83
2022/06/22 01:24:16;;;;;;;1.52;1.30;;;;;;;16.74;79.72;100489.06;5068229;28;20043;-83
2022/06/22 01:27:28;;;;;;;1.90;1.10;;;;;;;16.71;79.78;100499.28;5081791;28;20036;-83
2022/06/22 01:29:56;;;;;;;1.42;1.17;;;;;;;16.78;79.91;100499.38;5055453;28;20040;-83
2022/06/22 01:32:29;;;;;;;2.67;1.30;;;;;;;16.80;79.91;100502.72;5055256;28;20032;-83
2022/06/22 01:34:59;;;;;;;3.58;1.15;;;;;;;16.80;79.58;100498.19;5089386;28;20063;-83
2022/06/22 01:37:29;;;;;;;4.15;1.40;;;;;;;16.83;79.83;100508.47;5088278;28;20055;-84
2022/06/22 01:40:06;;;;;;;2.60;1.20;;;;;;;16.81;79.69;100505.19;5056297;28;20415;-83
2022/06/22 01:43:02;;;;;;;2.05;1.05;;;;;;;16.83;79.73;100502.34;5063092;28;20483;-83
2022/06/22 01:45:40;;;;;;;1.50;1.20;;;;;;;16.81;80.02;100501.69;5083424;28;20024;-83
2022/06/22 01:48:26;;;;;;;1.40;1.05;;;;;;;16.82;80.05;100503.31;5049561;28;20032;-83
2022/06/22 01:50:55;;;;;;;;;;;;;;;16.72;80.12;100507.09;5035218;28;20033;-83
2022/06/22 01:53:39;;;;;;;2.35;1.05;;;;;;;16.82;79.75;100503.31;5087355;28;20435;-83
2022/06/22 01:56:23;;;;;;;1.63;1.40;;;;;;;16.86;79.73;100504.63;5055302;28;20555;-83
2022/06/22 01:58:58;;;;;;;2.53;1.50;;;;;;;16.85;79.96;100501.13;5071563;28;20044;-84
2022/06/22 02:01:41;;;;;;;8.25;1.40;;;;;;;16.84;79.85;100496.81;5054378;28;20541;-82
2022/06/22 02:04:13;;;;;;;2.78;1.55;;;;;;;16.82;79.93;100487.31;5056255;28;20442;-82
2022/06/22 02:10:09;;;;;;;2.13;1.30;;;;;;;16.72;80.38;100472.41;5064943;28;20086;-84
2022/06/22 02:12:43;;;;;;;3.15;1.42;;;;;;;16.67;80.70;100469.50;5037778;28;20398;-83
2022/06/22 02:15:25;;;;;;;5.15;1.48;;;;;;;16.63;80.85;100468.19;5069145;28;20059;-83
2022/06/22 02:17:53;;;;;;;1.85;1.30;;;;;;;16.58;81.01;100466.06;5073809;28;20105;-84
2022/06/22 02:20:19;;;;;;;2.80;1.30;;;;;;;16.56;81.50;100459.28;5072188;28;20036;-82
2022/06/22 02:22:47;;;;;;;4.75;1.50;;;;;;;16.51;81.60;100459.81;5061778;28;20047;-82
2022/06/22 02:25:15;;;;;;;1.67;1.33;;;;;;;16.44;81.74;100453.53;5064797;28;20518;-83
2022/06/22 02:27:41;;;;;;;2.53;1.20;;;;;;;16.39;82.24;100456.75;5065636;28;20035;-83
2022/06/22 02:30:07;;;;;;;2.70;1.50;;;;;;;16.35;82.36;100463.47;5069110;28;20024;-83
2022/06/22 02:32:40;;;;;;;1.98;1.30;;;;;;;16.34;82.50;100459.97;5068134;28;20024;-83
2022/06/22 02:35:10;;;;;;;1.80;1.40;;;;;;;16.33;82.58;100454.81;5058126;28;20493;-83
2022/06/22 02:37:46;;;;;;;1.73;1.55;;;;;;;16.32;82.53;100450.50;5038829;28;20431;-83
2022/06/22 02:40:22;;;;;;;3.03;1.50;;;;;;;16.28;82.85;100443.88;5083568;28;20500;-83
2022/06/22 02:45:34;;;;;;;4.30;1.42;;;;;;;16.23;83.14;100441.75;5084181;28;20025;-83
2022/06/22 02:48:12;;;;;;;1.73;1.60;;;;;;;16.23;83.12;100449.75;5092069;28;20060;-83
2022/06/22 02:50:45;;;;;;;1.73;1.30;;;;;;;16.21;83.41;100446.47;5082943;28;20033;-82
2022/06/22 02:53:25;;;;;;;2.33;1.45;;;;;;;16.21;83.31;100441.13;5070980;28;20028;-83
2022/06/22 02:55:53;;;;;;;4.03;2.13;;;;;;;16.21;83.51;100444.59;5055254;28;20044;-84
2022/06/22 02:58:34;;;;;;;1.85;1.42;;;;;;;16.19;83.49;100443.13;5071869;28;20119;-83
2022/06/22 03:01:06;;;;;;;2.15;1.55;;;;;;;16.20;83.57;100447.44;5054972;28;20064;-82
2022/06/22 03:03:34;;;;;;;2.38;1.90;;;;;;;16.22;83.46;100445.44;5071416;28;20043;-82
2022/06/22 03:06:01;;;;;;;1.40;1.30;;;;;;;16.19;83.58;100435.97;5054012;28;20036;-83
2022/06/22 03:08:28;;;;;;;3.05;1.70;;;;;;;16.18;83.72;100439.63;5073352;28;20043;-83
2022/06/22 03:11:01;;;;;;;3.50;1.90;;;;;;;16.17;83.88;100443.31;5054958;28;20040;-83
2022/06/22 03:13:39;;;;;;;2.22;1.40;;;;;;;16.15;83.83;100442.66;5055203;28;20054;-83
2022/06/22 03:16:07;;;;;;;4.00;1.73;;;;;;;16.18;84.17;100449.50;5086123;28;20139;-83
2022/06/22 03:18:37;;;;;;;4.05;1.50;;;;;;;16.24;84.00;100451.44;5052876;28;20042;-83
2022/06/22 03:21:11;;;;;;;1.77;1.35;;;;;;;16.30;83.73;100441.84;5056734;28;20063;-83
2022/06/22 03:23:48;;;;;;;3.63;1.67;;;;;;;16.34;83.44;100435.97;5071417;28;20111;-83
2022/06/22 03:26:28;;;;;;;1.55;1.38;;;;;;;16.38;83.49;100447.13;5065277;28;20064;-83
2022/06/22 03:29:08;;;;;;;2.15;1.75;;;;;;;16.39;83.29;100446.09;5071294;28;20028;-83
2022/06/22 03:31:53;;;;;;;1.80;1.70;;;;;;;16.34;83.33;100443.97;5055917;28;20426;-83
2022/06/22 03:34:26;;;;;;;1.98;1.63;;;;;;;16.31;83.45;100440.88;5059481;28;20562;-83
2022/06/22 03:37:33;;;;;;;2.00;1.80;;;;;;;16.30;83.43;100431.19;5059369;28;20477;-83
2022/06/22 03:40:03;;;;;;;;;;;;;;;16.20;84.18;100431.44;5038133;28;20054;-83
2022/06/22 03:42:38;;;;;;;1.40;1.27;;;;;;;16.30;83.66;100424.03;5070626;28;19931;-83
2022/06/22 03:45:11;;;;;;;3.50;1.90;;;;;;;16.35;83.24;100428.81;5071972;28;20035;-83
2022/06/22 03:47:59;;;;;;;2.05;1.85;;;;;;;16.34;83.05;100432.50;5039032;28;20032;-82
2022/06/22 03:50:40;;;;;;;3.22;1.77;;;;;;;16.35;83.15;100429.66;5062271;28;20095;-83
2022/06/22 03:53:21;;;;;;;2.10;1.90;;;;;;;16.39;83.08;100423.94;5070814;28;20037;-83
2022/06/22 03:55:52;;;;;;;2.53;2.30;;;;;;;16.42;83.02;100420.91;5064604;28;20032;-83
2022/06/22 03:58:20;;;;;;;3.30;2.10;;;;;;;16.41;82.92;100424.56;5055095;28;20041;-83
2022/06/22 04:00:47;;;;;;;1.95;1.63;;;;;;;16.39;83.01;100427.41;5070438;28;20033;-82
2022/06/22 04:03:16;;;;;;;2.70;2.10;;;;;;;16.36;83.13;100422.44;5072793;28;20038;-82
2022/06/22 04:05:45;;;;;;;1.85;1.65;;;;;;;16.32;83.36;100427.34;5070430;28;20028;-83
2022/06/22 04:08:19;;;;;;;2.22;1.80;;;;;;;16.33;83.31;100425.50;5060482;28;20472;-84
2022/06/22 04:10:51;;;;;;;3.58;1.58;;;;;;;16.32;83.32;100423.84;5053100;28;20591;-82
2022/06/22 04:13:22;;;;;;;1.98;1.80;;;;;;;16.31;83.37;100419.53;5055356;28;20127;-82
2022/06/22 04:15:59;;;;;;;7.25;1.90;;;;;;;16.30;83.40;100420.53;5054161;28;20067;-83
2022/06/22 04:18:39;;;;;;;2.45;2.25;;;;;;;16.31;83.37;100427.53;5072062;28;20036;-83
2022/06/22 04:21:08;;;;;;;3.15;1.50;;;;;;;16.34;83.41;100427.97;5068210;28;20040;-83
2022/06/22 04:23:40;;;;;;;1.75;1.65;;;;;;;16.41;83.17;100433.41;5053334;28;20040;-83
2022/06/22 04:26:26;;;;;;;4.25;2.03;;;;;;;16.44;82.80;100435.72;5064040;28;20039;-84
2022/06/22 04:28:59;;;;;;;1.98;1.77;;;;;;;16.48;82.88;100431.66;5069431;28;20489;-83
2022/06/22 04:31:31;;;;;;;3.13;1.92;;;;;;;16.49;82.79;100433.31;5070819;28;20052;-83
2022/06/22 04:34:06;;;;;;;2.65;1.45;;;;;;;16.51;82.60;100427.81;5071530;28;20028;-83
2022/06/22 04:36:39;;;;;;;4.05;1.73;;;;;;;16.51;82.79;100430.47;5069340;28;20032;-83
2022/06/22 04:39:27;;;;;;;2.55;1.63;;;;;;;16.49;82.64;100432.50;5032220;28;20441;-83
2022/06/22 04:41:53;;;;;;;1.80;1.70;;;;;;;16.47;82.79;100432.66;5086123;28;20812;-83
2022/06/22 04:44:30;;;;;;;2.35;2.03;;;;;;;16.49;82.80;100435.16;5041103;28;20044;-83
2022/06/22 04:47:05;;;;;;;1.90;1.70;;;;;;;16.53;82.80;100440.97;5037965;28;20177;-84
2022/06/22 04:49:44;;;;;;;3.30;2.38;;;;;;;16.50;82.90;100436.81;5068039;28;20067;-82
2022/06/22 04:52:33;;;;;;;2.28;1.90;;;;;;;16.50;82.71;100442.13;5084677;28;20031;-83
2022/06/22 04:55:01;;;;;;;2.65;2.38;;;;;;;16.52;83.07;100450.78;5055888;28;20085;-83
2022/06/22 04:57:37;;;;;;;3.30;2.15;;;;;;;16.53;83.00;100448.97;5037580;28;20388;-83
2022/06/22 05:00:34;;;;;;;;;;;;;;;16.42;83.25;100451.06;5089139;28;20035;-83
2022/06/22 05:03:13;;;;;;;2.28;2.08;;;;;;;16.54;83.00;100458.63;5044431;28;19973;-83
2022/06/22 05:05:39;;;;;;;3.75;2.17;;;;;;;16.57;82.81;100460.91;5072466;28;20028;-83
2022/06/22 05:08:27;;;;;;;1.98;1.75;;;;;;;16.59;82.59;100461.56;5057199;28;20097;-83
2022/06/22 05:11:02;;;;;;;2.97;2.15;;;;;;;16.58;82.70;100466.06;5071287;28;20039;-82
2022/06/22 05:13:44;;;;;;;1.75;1.63;;;;;;;16.59;82.46;100461.56;5056493;28;20526;-82
2022/06/22 05:16:18;;;;;;;3.38;2.17;;;;;;;16.64;82.88;100459.19;5090064;28;20476;-83
2022/06/22 05:18:46;;;;;;;3.10;2.20;;;;;;;16.64;82.79;100456.50;5053965;28;20044;-83
2022/06/22 05:21:43;;;;;;;2.88;2.10;;;;;;;16.65;82.51;100458.16;5056533;28;20587;-82
2022/06/22 05:24:43;;;;;;;2.55;2.35;;;;;;;16.61;82.85;100460.38;5059326;28;20040;-82
2022/06/22 05:27:12;;;;;;;2.30;2.20;;;;;;;16.53;83.16;100463.13;5069898;28;20077;-83
2022/06/22 05:29:46;;;;;;;3.05;1.88;;;;;;;16.55;83.34;100473.59;5072785;28;20099;-83
2022/06/22 05:32:28;;;;;;;1.88;1.60;;;;;;;16.58;83.39;100474.06;5056061;28;20118;-84
2022/06/22 05:34:55;;;;;;;2.38;1.65;;;;;;;16.60;83.41;100474.72;5067291;28;20546;-83
2022/06/22 05:37:28;;;;;;;2.25;1.77;;;;;;;16.61;83.71;100480.91;5089187;28;20122;-83
2022/06/22 05:39:56;;;;;;;4.32;1.55;;;;;;;16.64;83.60;100480.53;5074355;28;20480;-83
2022/06/22 05:42:24;;;;;;;2.72;1.88;;;;;;;16.67;83.59;100482.84;5060214;28;20098;-83
2022/06/22 05:44:54;;;;;;;4.35;1.70;;;;;;;16.66;83.50;100486.50;5076558;28;20055;-83
2022/06/22 05:47:30;;;;;;;1.70;1.60;;;;;;;16.67;83.25;100488.16;5076648;28;20479;-83
2022/06/22 05:50:31;;;;;;;1.73;1.63;;;;;;;16.67;82.98;100490.00;5076486;28;20100;-83
2022/06/22 05:53:18;;;;;;;3.10;2.40;;;;;;;16.68;82.86;100486.31;5076161;28;20039;-83
2022/06/22 05:56:12;;;;;;;2.63;1.85;;;;;;;16.61;82.91;100487.03;5077006;28;20028;-82
2022/06/22 05:58:43;;;;;;;5.03;1.92;;;;;;;16.57;83.47;100484.94;5059191;28;20059;-82
2022/06/22 06:01:30;;;;;;;3.28;2.20;;;;;;;16.59;83.01;100490.91;5076993;28;20044;-82
2022/06/22 06:04:07;;;;;;;3.42;2.08;;;;;;;16.60;83.25;100498.75;5075967;28;20036;-82
2022/06/22 06:06:40;;;;;;;4.15;1.60;;;;;;;16.63;83.43;100499.41;5058374;28;20128;-83
2022/06/22 06:09:12;;;;;;;2.22;1.70;;;;;;;16.66;83.02;100512.38;5059178;28;20035;-83
2022/06/22 06:11:48;;;;;;;1.63;1.52;;;;;;;16.68;82.86;100505.81;5056046;28;20039;-83
2022/06/22 06:14:38;;;;;;;2.38;1.60;;;;;;;16.71;82.53;100509.97;5042835;28;20065;-83
2022/06/22 06:17:11;;;;;;;2.00;1.83;;;;;;;16.73;82.52;100506.13;5072826;28;20499;-82
2022/06/22 06:19:41;;;;;;;2.10;1.90;;;;;;;16.79;82.41;100509.03;5052989;28;20028;-82
2022/06/22 06:22:09;;;;;;;3.28;1.90;;;;;;;16.80;82.34;100514.19;5056879;28;20059;-83
2022/06/22 06:28:04;;;;;;;2.33;1.42;;;;;;;16.80;82.24;100518.72;5070332;28;20134;-83
2022/06/22 06:30:35;;;;;;;1.92;1.50;;;;;;;16.82;82.13;100514.00;5057812;28;20036;-83
2022/06/22 06:33:09;;;;;;;1.80;1.63;;;;;;;16.84;82.09;100515.50;5076883;28;20032;-83
2022/06/22 06:35:49;;;;;;;5.68;1.80;;;;;;;16.86;81.82;100515.31;5088390;28;20045;-83
2022/06/22 06:38:23;;;;;;;2.80;1.45;;;;;;;16.89;81.80;100516.78;5060178;28;20032;-83
2022/06/22 06:40:53;;;;;;;7.47;1.45;;;;;;;16.91;81.80;100520.09;5048382;28;20439;-83
2022/06/22 06:43:42;;;;;;;3.30;1.08;;;;;;;16.84;81.62;100518.16;5060021;28;20408;-83
2022/06/22 06:46:20;;;;;;;1.27;1.08;;;;;;;16.70;81.93;100506.47;5093822;28;20090;-82
2022/06/22 06:48:53;;;;;;;1.77;0.95;;;;;;;16.68;82.18;100508.50;5049420;28;20097;-82
2022/06/22 06:51:22;;;;;;;2.30;1.00;;;;;;;16.70;82.22;100514.50;5058357;28;20032;-82
2022/06/22 06:53:56;;;;;;;3.58;1.55;;;;;;;16.72;82.13;100522.31;5060221;28;20031;-83
2022/06/22 06:56:47;;;;;;;1.45;1.00;;;;;;;16.70;82.37;100524.31;5070626;28;20028;-83
2022/06/22 06:59:17;;;;;;;1.90;0.90;;;;;;;16.70;82.41;100519.00;5089338;28;20082;-83
2022/06/22 07:01:46;;;;;;;1.60;0.90;;;;;;;16.73;82.64;100523.97;5055312;28;20027;-83
2022/06/22 07:04:38;;;;;;;30.67;3.45;;;;;;;16.66;82.45;100523.84;5054594;28;20118;-83
2022/06/22 07:07:08;;;;;;;3.35;1.33;;;;;;;16.61;83.00;100527.06;5047267;28;20040;-83
2022/06/22 07:09:38;;;;;;;1.20;0.80;;;;;;;16.63;83.52;100523.41;5042091;28;20035;-83
2022/06/22 07:12:12;;;;;;;1.00;0.90;;;;;;;16.63;83.17;100532.22;5053046;28;20545;-83
2022/06/22 07:14:41;;;;;;;3.67;1.13;;;;;;;16.61;83.48;100529.75;5049349;28;20035;-83
2022/06/22 07:17:17;;;;;;;1.95;1.00;;;;;;;16.61;83.16;100524.41;5073948;28;20052;-83
2022/06/22 07:19:53;;;;;;;4.20;1.13;;;;;;;16.63;82.99;100520.75;5072090;28;20115;-83
2022/06/22 07:22:26;;;;;;;3.75;1.30;;;;;;;16.68;83.07;100523.66;5051914;28;20028;-82
2022/06/22 07:25:19;;;;;;;2.38;1.13;;;;;;;16.68;82.62;100521.00;5057886;28;20035;-83
2022/06/22 07:27:53;;;;;;;1.42;1.10;;;;;;;16.65;82.72;100521.38;5064587;28;20044;-83
2022/06/22 07:30:41;;;;;;;1.37;1.27;;;;;;;16.70;82.72;100517.16;5058265;28;20032;-83
2022/06/22 07:33:19;;;;;;;2.80;1.08;;;;;;;16.80;82.56;100514.19;5050623;28;20150;-83
2022/06/22 07:36:07;;;;;;;2.35;1.00;;;;;;;16.89;82.49;100512.28;5069524;28;20102;-82
2022/06/22 07:38:56;;;;;;;2.40;1.02;;;;;;;16.95;81.98;100505.34;5072355;28;20465;-83
2022/06/22 07:41:24;;;;;;;2.20;1.05;;;;;;;17.03;81.73;100507.94;5071101;28;20036;-83
2022/06/22 07:44:15;;;;;;;1.17;1.08;;;;;;;17.11;81.51;100509.69;5091422;28;20028;-83
2022/06/22 07:47:05;;;;;;;1.48;0.90;;;;;;;17.17;81.68;100511.63;5098032;28;20032;-82
2022/06/22 07:49:39;;;;;;;2.60;0.70;;;;;;;17.24;81.14;100509.03;5071474;28;20055;-83
2022/06/22 07:52:15;;;;;;;3.92;1.00;;;;;;;17.25;80.66;100515.22;5068268;28;20037;-84
2022/06/22 07:54:49;;;;;;;1.85;0.73;;;;;;;17.28;80.30;100512.19;5061476;28;20031;-84
2022/06/22 07:57:34;;;;;;;2.15;0.70;;;;;;;17.29;80.34;100501.31;5071307;28;20043;-82
2022/06/22 08:00:22;;;;;;;1.30;0.70;;;;;;;17.30;79.81;100502.13;5073801;28;20111;-84
2022/06/22 08:03:14;;;;;;;4.13;0.70;;;;;;;17.35;79.77;100502.38;5089824;28;20548;-85
2022/06/22 08:05:44;;;;;;;1.85;0.70;;;;;;;17.30;80.05;100502.94;5077773;28;20032;-84
2022/06/22 08:08:23;;;;;;;0.82;0.60;;;;;;;17.36;80.11;100502.19;5049333;28;20105;-84
2022/06/22 08:11:02;;;;;;;1.77;0.80;;;;;;;17.35;79.89;100503.22;5060843;28;20076;-84
2022/06/22 08:13:34;;;;;;;2.67;0.77;;;;;;;17.41;80.11;100492.78;5057290;28;20171;-84
2022/06/22 08:16:12;;;;;;;0.95;0.55;;;;;;;17.33;79.59;100499.06;5068804;28;20036;-84
2022/06/22 08:18:38;;;;;;;1.70;0.60;;;;;;;17.31;79.66;100498.44;5057275;28;20055;-85
2022/06/22 08:21:06;;;;;;;1.85;0.77;;;;;;;17.34;79.70;100493.53;5057513;28;20036;-84
2022/06/22 08:23:35;;;;;;;1.77;0.88;;;;;;;17.39;79.46;100484.94;5081531;28;20040;-85
2022/06/22 08:26:09;;;;;;;0.80;0.80;;;;;;;17.42;79.32;100483.78;5065113;28;20036;-85
2022/06/22 08:28:38;;;;;;;2.22;0.90;;;;;;;17.44;79.22;100482.56;5089304;28;20110;-84
2022/06/22 08:31:05;;;;;;;1.77;0.70;;;;;;;17.56;79.04;100487.41;5091347;28;20510;-84
2022/06/22 08:33:31;;;;;;;1.27;0.70;;;;;;;17.68;78.87;100480.53;5056367;28;20028;-85
2022/06/22 08:36:42;;;;;;;1.35;0.70;;;;;;;17.73;78.36;100478.13;5055886;28;20044;-82
2022/06/22 08:39:31;;;;;;;0.93;0.70;;;;;;;17.72;78.00;100479.16;5071990;28;20036;-82
2022/06/22 08:42:33;;;;;;;2.63;0.70;;;;;;;17.70;77.73;100483.00;5040345;28;20058;-85
2022/06/22 08:45:33;;;;;;;1.20;0.85;;;;;;;17.78;78.11;100477.53;5072977;28;20434;-85
2022/06/22 08:48:28;;;;;;;3.78;0.88;;;;;;;17.86;77.60;100481.94;5073166;28;20035;-85
2022/06/22 08:51:13;;;;;;;0.90;0.63;;;;;;;17.83;77.06;100480.47;5037119;28;20028;-85
2022/06/22 08:54:09;;;;;;;1.08;0.70;;;;;;;17.85;77.32;100482.97;5090302;28;20059;-85
2022/06/22 08:56:41;;;;;;;2.67;1.00;;;;;;;17.96;76.87;100476.25;5059673;28;20523;-85
2022/06/22 08:59:45;;;;;;;1.48;0.80;;;;;;;18.00;76.55;100482.06;5063758;28;20038;-85
2022/06/22 09:02:35;;;;;;;3.65;0.75;;;;;;;18.08;76.38;100484.56;5052828;28;20047;-82
2022/06/22 09:05:35;;;;;;;7.05;1.00;;;;;;;18.07;76.46;100477.59;5044216;28;20115;-84
2022/06/22 09:08:28;;;;;;;1.08;0.60;;;;;;;18.17;76.31;100485.31;5082492;28;20070;-84
2022/06/22 09:11:25;;;;;;;1.40;0.80;;;;;;;18.27;76.46;100491.13;5045242;28;20048;-84
2022/06/22 09:14:09;;;;;;;2.25;0.90;;;;;;;18.33;76.05;100489.56;5090512;28;20039;-84
2022/06/22 09:17:03;;;;;;;0.77;0.77;;;;;;;18.35;75.98;100487.47;5076620;28;20070;-82
2022/06/22 09:19:54;;;;;;;2.50;0.95;;;;;;;18.35;75.76;100480.28;5080736;28;20024;-82
2022/06/22 09:22:53;;;;;;;1.20;0.73;;;;;;;18.41;75.21;100478.66;5058840;28;20040;-85
2022/06/22 09:25:25;;;;;;;2.38;0.80;;;;;;;18.50;75.00;100482.03;5061263;28;20054;-82
2022/06/22 09:27:57;;;;;;;3.90;1.02;;;;;;;18.48;74.74;100481.41;5077644;28;20031;-82
2022/06/22 09:30:35;;;;;;;0.95;0.70;;;;;;;18.54;74.79;100482.47;5094759;28;20136;-84
2022/06/22 09:33:32;;;;;;;1.33;0.70;;;;;;;18.57;74.32;100484.78;5049445;28;20186;-84
2022/06/22 09:36:23;;;;;;;1.50;0.82;;;;;;;18.66;74.01;100486.25;5071007;28;20094;-84
2022/06/22 09:38:49;;;;;;;1.38;0.75;;;;;;;18.64;74.22;100480.25;5062371;28;20044;-84
2022/06/22 09:41:33;;;;;;;2.50;0.65;;;;;;;18.67;74.23;100487.06;5044388;28;20050;-82
2022/06/22 09:44:05;;;;;;;1.85;0.60;;;;;;;18.63;73.98;100483.13;5070841;28;20086;-82
2022/06/22 09:46:54;;;;;;;3.10;0.80;;;;;;;18.62;73.64;100476.94;5072443;28;20029;-84
2022/06/22 09:49:47;;;;;;;0.98;0.70;;;;;;;18.65;73.66;100467.72;5028245;28;20101;-84
2022/06/22 09:52:28;;;;;;;2.70;0.90;;;;;;;18.64;73.30;100464.19;5055677;28;20082;-85
2022/06/22 09:58:04;;;;;;;1.95;0.80;;;;;;;18.73;73.38;100464.84;5072389;28;20032;-84
2022/06/22 10:00:36;;;;;;;2.22;1.05;;;;;;;18.89;73.02;100458.34;5072796;28;20032;-83
2022/06/22 10:03:31;;;;;;;1.15;0.73;;;;;;;19.01;72.41;100461.28;5055206;28;20083;-82
2022/06/22 10:06:34;;;;;;;2.15;0.73;;;;;;;19.04;72.50;100454.69;5047924;28;20504;-84
2022/06/22 10:09:03;;;;;;;1.10;0.90;;;;;;;19.16;72.42;100453.13;5070806;28;20498;-85
2022/06/22 10:11:44;;;;;;;1.50;0.90;;;;;;;19.28;71.57;100439.97;5071720;28;20044;-82
2022/06/22 10:14:20;;;;;;;1.40;0.80;;;;;;;19.39;71.25;100441.22;5072817;28;20032;-82
2022/06/22 10:16:49;;;;;;;3.33;1.27;;;;;;;19.38;71.26;100438.75;5086166;28;20032;-82
2022/06/22 10:19:40;;;;;;;0.95;0.50;;;;;;;19.31;70.80;100447.59;5071168;28;20033;-82
2022/06/22 10:22:33;;;;;;;3.22;0.70;;;;;;;19.11;70.61;100450.22;5031574;28;20036;-85
2022/06/22 10:25:38;;;;;;;0.70;0.70;;;;;;;18.85;70.45;100443.72;5053004;28;20098;-84
2022/06/22 10:28:29;;;;;;;2.17;0.60;;;;;;;18.70;71.28;100450.03;5066037;28;20036;-84
2022/06/22 10:31:07;;;;;;;4.95;0.77;;;;;;;18.77;71.45;100451.91;5069640;28;20078;-84
2022/06/22 10:34:11;;;;;;;1.23;0.70;;;;;;;18.92;70.71;100452.59;5052578;28;20724;-84
2022/06/22 10:36:58;;;;;;;0.80;0.47;;;;;;;19.06;70.37;100460.69;5053818;28;20044;-85
2022/06/22 10:39:49;;;;;;;0.77;0.50;;;;;;;19.08;69.62;100448.72;5064228;28;20056;-85
2022/06/22 10:45:20;;;;;;;;;;;;;;;18.91;69.09;100453.63;5056171;28;20384;-84
2022/06/22 10:48:11;;;;;;;0.77;0.50;;;;;;;18.89;69.59;100444.16;5071953;28;20411;-85
2022/06/22 10:50:47;;;;;;;0.93;0.55;;;;;;;18.80;68.82;100454.19;5067162;28;20025;-82
2022/06/22 10:53:37;;;;;;;0.52;0.50;;;;;;;18.82;69.91;100449.47;5065382;28;20037;-83
2022/06/22 10:56:24;;;;;;;0.60;0.30;;;;;;;18.89;69.36;100452.19;5051431;28;20051;-85
2022/06/22 10:59:12;;;;;;;2.85;0.55;;;;;;;18.83;69.76;100451.09;5050228;28;20032;-85
2022/06/22 11:01:47;;;;;;;1.23;0.40;;;;;;;18.70;70.23;100443.84;5054373;28;20058;-85
2022/06/22 11:04:34;;;;;;;2.40;0.50;;;;;;;18.70;70.25;100444.66;5054974;28;20033;-85
2022/06/22 11:07:12;;;;;;;0.82;0.50;;;;;;;18.68;70.19;100438.69;5069866;28;20036;-82
2022/06/22 11:09:59;;;;;;;3.05;0.50;;;;;;;18.66;70.05;100446.09;5055187;28;20055;-82
2022/06/22 11:13:10;;;;;;;2.22;0.50;;;;;;;18.70;69.72;100446.50;5070951;28;20029;-85
2022/06/22 11:15:59;;;;;;;1.05;0.73;;;;;;;18.76;70.17;100442.22;5050385;28;20051;-85
2022/06/22 11:18:43;;;;;;;4.20;1.35;;;;;;;18.80;69.79;100447.00;5029849;28;20512;-84
2022/06/22 11:21:31;;;;;;;1.80;0.73;;;;;;;18.89;69.40;100449.50;5073159;28;20188;-85
2022/06/22 11:23:57;;;;;;;2.17;0.73;;;;;;;18.96;69.46;100440.47;5085086;28;20063;-85
2022/06/22 11:33:06;;;;;;;;;;;;;;;18.93;69.08;100442.72;5071155;28;20127;-85
2022/06/22 11:35:41;;;;;;;2.72;0.70;;;;;;;19.11;69.36;100444.88;5070947;28;19920;-85
2022/06/22 11:38:26;;;;;;;2.08;0.77;;;;;;;19.19;69.18;100442.00;5071173;28;20043;-85
2022/06/22 11:41:19;;;;;;;2.78;0.80;;;;;;;19.29;68.94;100440.78;5054000;28;20032;-85
2022/06/22 11:44:07;;;;;;;1.02;0.70;;;;;;;19.32;69.03;100446.56;5060923;28;20105;-85
2022/06/22 11:46:40;;;;;;;1.70;0.93;;;;;;;19.41;69.16;100441.84;5070247;28;20108;-82
2022/06/22 11:49:41;;;;;;;1.15;0.60;;;;;;;19.43;69.12;100442.47;5071015;28;20477;-82
2022/06/22 11:52:12;;;;;;;0.90;0.60;;;;;;;19.52;68.93;100442.28;5081922;28;20432;-85
2022/06/22 11:54:53;;;;;;;1.60;1.08;;;;;;;19.54;68.57;100443.72;5088291;28;20432;-85
2022/06/22 11:57:47;;;;;;;3.08;1.00;;;;;;;19.58;68.34;100446.81;5065547;28;20036;-84
2022/06/22 12:00:51;;;;;;;1.33;0.70;;;;;;;19.51;68.18;100448.69;5037033;28;20123;-84
2022/06/22 12:03:57;;;;;;;1.35;0.57;;;;;;;19.49;68.13;100454.25;5006987;28;20630;-84
2022/06/22 12:06:48;;;;;;;2.00;0.70;;;;;;;19.52;68.06;100453.00;5080033;28;20024;-82
2022/06/22 12:09:48;;;;;;;2.30;0.80;;;;;;;19.51;68.26;100443.31;5060539;28;20037;-82
2022/06/22 12:12:29;;;;;;;2.15;0.75;;;;;;;19.51;68.76;100446.00;5087332;28;20378;-84
2022/06/22 12:15:16;;;;;;;0.70;0.70;;;;;;;19.47;68.13;100440.22;5054673;28;20044;-85
2022/06/22 12:18:01;;;;;;;1.85;0.85;;;;;;;19.44;68.64;100443.28;5067269;28;20035;-84
2022/06/22 12:20:46;;;;;;;1.85;0.70;;;;;;;19.41;68.10;100432.97;5071221;28;20112;-82
2022/06/22 12:23:30;;;;;;;1.13;0.85;;;;;;;19.48;67.67;100439.16;5071492;28;20485;-82
2022/06/22 12:26:31;;;;;;;1.70;0.98;;;;;;;19.53;67.86;100439.38;5084652;28;20115;-84
2022/06/22 12:29:36;;;;;;;0.68;0.68;;;;;;;19.53;67.61;100439.38;5070643;28;20032;-85
2022/06/22 12:32:19;;;;;;;1.83;0.70;;;;;;;19.46;67.91;100434.00;5054133;28;20044;-85
2022/06/22 12:35:03;;;;;;;1.10;0.85;;;;;;;19.51;67.91;100435.28;5051946;28;20100;-85
2022/06/22 12:37:36;;;;;;;2.58;1.10;;;;;;;19.57;67.47;100429.09;5062534;28;20032;-85
2022/06/22 12:40:11;;;;;;;2.90;0.90;;;;;;;19.66;67.39;100421.66;5073820;28;20035;-85
2022/06/22 12:42:49;;;;;;;;;;;;;;;19.62;67.66;100428.47;5049904;28;20079;-85
2022/06/22 12:45:53;;;;;;;0.90;0.80;;;;;;;19.76;67.24;100422.09;5085822;28;19946;-85